createdAt,value
2019-03-18T00:01:41.470Z,3.50
2019-03-18T00:04:12.638Z,3.50
2019-03-18T00:06:43.581Z,3.50
2019-03-18T00:09:14.415Z,3.50
2019-03-18T00:11:45.867Z,3.40
2019-03-18T00:14:16.788Z,3.40
2019-03-18T00:16:48.766Z,3.50
2019-03-18T00:19:20.690Z,3.50
2019-03-18T00:21:51.667Z,3.50
2019-03-18T00:24:22.606Z,3.40
2019-03-18T00:26:53.420Z,3.40
2019-03-18T00:29:24.484Z,3.30
2019-03-18T00:31:57.304Z,3.30
2019-03-18T00:34:28.204Z,3.30
2019-03-18T00:36:59.134Z,3.40
2019-03-18T00:39:31.344Z,3.30
2019-03-18T00:42:04.065Z,3.20
2019-03-18T00:44:35.023Z,3.20
2019-03-18T00:47:05.962Z,3.10
2019-03-18T00:49:36.898Z,3.00
2019-03-18T00:52:07.839Z,3.10
2019-03-18T00:54:38.776Z,3.20
2019-03-18T00:57:09.717Z,3.20
2019-03-18T00:59:40.652Z,3.20
2019-03-18T01:02:11.698Z,3.20
2019-03-18T01:04:42.630Z,3.30
2019-03-18T01:07:15.043Z,3.30
2019-03-18T01:09:47.089Z,3.30
2019-03-18T01:12:18.208Z,3.40
2019-03-18T01:14:49.018Z,3.40
2019-03-18T01:17:20.973Z,3.40
2019-03-18T01:19:51.801Z,3.30
2019-03-18T01:22:22.955Z,3.30
2019-03-18T01:24:53.923Z,3.30
2019-03-18T01:27:25.581Z,3.30
2019-03-18T01:29:56.616Z,3.30
2019-03-18T01:32:27.422Z,3.30
2019-03-18T01:34:58.390Z,3.20
2019-03-18T01:37:29.430Z,3.20
2019-03-18T01:40:00.574Z,3.20
2019-03-18T01:42:33.635Z,3.20
2019-03-18T01:45:06.036Z,3.30
2019-03-18T01:47:36.966Z,3.20
2019-03-18T01:50:13.542Z,3.30
2019-03-18T01:52:45.711Z,3.20
2019-03-18T01:55:16.635Z,3.30
2019-03-18T01:57:47.588Z,3.20
2019-03-18T02:00:18.527Z,3.20
2019-03-18T02:02:51.775Z,3.20
2019-03-18T02:05:23.338Z,3.20
2019-03-18T02:07:54.285Z,3.30
2019-03-18T02:10:25.247Z,3.30
2019-03-18T02:12:57.902Z,3.20
2019-03-18T02:15:28.734Z,3.30
2019-03-18T02:17:59.714Z,3.30
2019-03-18T02:20:30.533Z,3.30
2019-03-18T02:23:01.369Z,3.30
2019-03-18T02:25:32.204Z,3.30
2019-03-18T02:28:03.041Z,3.40
2019-03-18T02:30:33.875Z,3.30
2019-03-18T02:33:04.816Z,3.30
2019-03-18T02:35:35.755Z,3.30
2019-03-18T02:38:06.692Z,3.20
2019-03-18T02:40:37.529Z,3.30
2019-03-18T02:43:09.286Z,3.20
2019-03-18T02:45:40.227Z,3.20
2019-03-18T02:48:10.999Z,3.30
2019-03-18T02:50:41.999Z,3.20
2019-03-18T02:53:13.343Z,3.10
2019-03-18T02:55:44.278Z,3.10
2019-03-18T02:58:16.073Z,3.10
2019-03-18T03:00:47.053Z,3.10
2019-03-18T03:03:19.842Z,3.00
2019-03-18T03:05:50.491Z,3.00
2019-03-18T03:08:21.432Z,3.10
2019-03-18T03:10:52.365Z,3.00
2019-03-18T03:13:23.920Z,3.00
2019-03-18T03:15:54.873Z,2.90
2019-03-18T03:18:25.796Z,3.10
2019-03-18T03:20:56.714Z,3.00
2019-03-18T03:23:27.695Z,2.90
2019-03-18T03:25:58.613Z,2.90
2019-03-18T03:28:29.547Z,3.00
2019-03-18T03:31:00.492Z,3.00
2019-03-18T03:33:31.295Z,2.90
2019-03-18T03:36:02.258Z,3.00
2019-03-18T03:38:33.217Z,2.90
2019-03-18T03:41:06.070Z,2.90
2019-03-18T03:43:36.559Z,2.90
2019-03-18T03:46:08.434Z,2.90
2019-03-18T03:48:39.409Z,2.80
2019-03-18T03:51:10.342Z,2.90
2019-03-18T03:53:41.284Z,2.90
2019-03-18T03:56:12.245Z,2.90
2019-03-18T03:58:43.262Z,2.80
2019-03-18T04:01:14.199Z,2.80
2019-03-18T04:03:45.143Z,2.80
2019-03-18T04:06:16.180Z,2.90
2019-03-18T04:08:47.116Z,3.00
2019-03-18T04:11:17.956Z,3.20
2019-03-18T04:13:48.872Z,3.20
2019-03-18T04:16:19.826Z,3.20
2019-03-18T04:18:50.633Z,3.10
2019-03-18T04:21:21.601Z,3.10
2019-03-18T04:23:52.538Z,3.10
2019-03-18T04:26:26.642Z,3.10
2019-03-18T04:28:57.379Z,3.10
2019-03-18T04:31:28.302Z,3.20
2019-03-18T04:33:59.263Z,3.20
2019-03-18T04:36:30.716Z,3.30
2019-03-18T04:39:01.548Z,3.30
2019-03-18T04:41:34.125Z,3.40
2019-03-18T04:44:05.063Z,3.40
2019-03-18T04:46:36.417Z,3.40
2019-03-18T04:49:09.606Z,3.50
2019-03-18T04:51:40.538Z,3.50
2019-03-18T04:54:13.106Z,3.50
2019-03-18T04:56:45.078Z,3.50
2019-03-18T04:59:17.159Z,3.50
2019-03-18T05:01:48.071Z,3.60
2019-03-18T05:04:18.886Z,3.60
2019-03-18T05:06:49.852Z,3.60
2019-03-18T05:09:21.815Z,3.70
2019-03-18T05:11:52.753Z,3.70
2019-03-18T05:14:23.693Z,3.80
2019-03-18T05:16:54.629Z,3.80
2019-03-18T05:19:25.669Z,3.70
2019-03-18T05:21:56.608Z,3.70
2019-03-18T05:24:27.526Z,3.80
2019-03-18T05:26:58.485Z,3.80
2019-03-18T05:29:30.415Z,3.80
2019-03-18T05:32:05.000Z,3.80
2019-03-18T05:34:35.084Z,3.80
2019-03-18T05:37:06.021Z,3.80
2019-03-18T05:39:36.936Z,3.80
2019-03-18T05:42:08.894Z,3.80
2019-03-18T05:44:39.758Z,3.80
2019-03-18T05:47:10.696Z,3.90
2019-03-18T05:49:41.638Z,3.90
2019-03-18T05:52:13.186Z,3.90
2019-03-18T05:54:45.768Z,3.90
2019-03-18T05:57:16.682Z,3.90
2019-03-18T05:59:47.642Z,3.90
2019-03-18T06:02:18.785Z,3.90
2019-03-18T06:04:49.825Z,3.90
2019-03-18T06:07:20.769Z,3.90
2019-03-18T06:09:51.596Z,3.90
2019-03-18T06:12:23.846Z,3.90
2019-03-18T06:14:54.995Z,3.80
2019-03-18T06:17:25.916Z,3.90
2019-03-18T06:19:56.755Z,4.10
2019-03-18T06:22:27.899Z,4.10
2019-03-18T06:24:58.762Z,4.10
2019-03-18T06:27:29.596Z,4.20
2019-03-18T06:30:00.540Z,4.30
2019-03-18T06:32:31.471Z,4.40
2019-03-18T06:35:02.515Z,4.50
2019-03-18T06:37:33.452Z,4.60
2019-03-18T06:40:06.643Z,4.80
2019-03-18T06:42:37.683Z,4.80
2019-03-18T06:45:10.967Z,5.00
2019-03-18T06:47:41.916Z,5.00
2019-03-18T06:50:13.434Z,5.10
2019-03-18T06:52:45.123Z,5.10
2019-03-18T06:55:16.059Z,5.20
2019-03-18T06:57:46.892Z,5.50
2019-03-18T07:00:18.042Z,6.30
2019-03-18T07:02:50.384Z,8.90
2019-03-18T07:05:21.347Z,8.40
2019-03-18T07:07:52.149Z,7.80
2019-03-18T07:10:23.006Z,7.70
2019-03-18T07:12:55.119Z,7.70
2019-03-18T07:15:26.133Z,8.90
2019-03-18T07:17:57.067Z,8.50
2019-03-18T07:20:29.701Z,7.80
2019-03-18T07:23:02.529Z,7.10
2019-03-18T07:25:33.461Z,6.60
2019-03-18T07:28:04.506Z,6.10
2019-03-18T07:30:35.328Z,5.90
2019-03-18T07:33:07.482Z,5.70
2019-03-18T07:35:39.390Z,6.00
2019-03-18T07:38:10.402Z,6.30
2019-03-18T07:40:41.237Z,6.50
2019-03-18T07:43:12.176Z,6.20
2019-03-18T07:45:43.186Z,5.90
2019-03-18T07:48:14.034Z,5.80
2019-03-18T07:50:44.994Z,5.80
2019-03-18T07:53:18.319Z,6.00
2019-03-18T07:55:49.430Z,6.10
2019-03-18T07:58:22.453Z,6.10
2019-03-18T08:00:53.109Z,6.90
2019-03-18T08:03:25.521Z,10.40
2019-03-18T08:05:56.458Z,12.70
2019-03-18T08:08:27.498Z,12.10
2019-03-18T08:10:58.410Z,10.40
2019-03-18T08:13:29.580Z,8.70
2019-03-18T08:16:00.525Z,7.90
2019-03-18T08:18:42.787Z,7.60
2019-03-18T08:21:03.926Z,7.20
2019-03-18T08:23:35.659Z,6.90
2019-03-18T08:26:06.497Z,6.70
2019-03-18T08:28:37.471Z,6.60
2019-03-18T08:31:08.387Z,6.70
